Time;durP1;ratioP1;P1;durP2;ratioP2;P2;SDS_P1;SDS_P2;PMS_P1;PMS_P2;Temp;Humidity;BMP_temperature;BMP_pressure;BME280_temperature;BME280_humidity;BME280_pressure;Samples;Min_cycle;Max_cycle;Signal;HPM_P1;HPM_P2
2024/02/03 00:00:52;;;;;;;3.53;1.33;;;20.70;43.00;;;;;;5078507;28;20097;-59
2024/02/03 00:03:18;;;;;;;2.65;1.13;;;20.70;43.00;;;;;;5095202;28;20023;-61
2024/02/03 00:05:44;;;;;;;2.45;1.45;;;20.60;43.00;;;;;;5094683;28;20028;-59
2024/02/03 00:08:10;;;;;;;1.65;1.10;;;20.60;43.00;;;;;;5095597;28;20020;-59
2024/02/03 00:10:36;;;;;;;1.92;1.40;;;20.60;43.00;;;;;;5096276;28;20034;-59
2024/02/03 00:13:02;;;;;;;2.60;1.50;;;20.60;43.00;;;;;;5094569;28;20081;-60
2024/02/03 00:15:28;;;;;;;2.35;1.15;;;20.60;43.00;;;;;;5096612;28;20040;-60
2024/02/03 00:17:54;;;;;;;2.90;1.38;;;20.60;43.10;;;;;;5075857;28;20035;-60
2024/02/03 00:20:20;;;;;;;2.75;1.38;;;20.60;43.10;;;;;;5095703;28;20031;-59
2024/02/03 00:22:50;;;;;;;2.38;1.20;;;20.60;43.10;;;;;;5095671;28;20024;-60
2024/02/03 00:25:18;;;;;;;2.40;1.20;;;20.60;43.10;;;;;;5078463;28;20024;-57
2024/02/03 00:27:44;;;;;;;1.77;1.20;;;20.60;43.20;;;;;;5095728;28;20020;-61
2024/02/03 00:30:10;;;;;;;2.17;1.20;;;20.60;43.20;;;;;;5094461;28;20031;-59
2024/02/03 00:32:36;;;;;;;2.35;1.20;;;20.60;43.20;;;;;;5095290;28;20359;-59
2024/02/03 00:35:02;;;;;;;2.55;1.55;;;20.60;43.20;;;;;;5077761;28;20458;-58
2024/02/03 00:37:28;;;;;;;2.22;1.40;;;20.60;43.20;;;;;;5087123;28;20035;-60
2024/02/03 00:39:54;;;;;;;1.85;1.20;;;20.60;43.30;;;;;;5095526;28;20368;-61
2024/02/03 00:42:20;;;;;;;2.80;1.10;;;20.50;43.20;;;;;;5094584;28;20336;-60
2024/02/03 00:44:45;;;;;;;1.98;1.35;;;20.50;43.30;;;;;;5095110;28;20131;-60
2024/02/03 00:47:11;;;;;;;2.50;1.10;;;20.50;43.30;;;;;;5095808;28;20058;-60
2024/02/03 00:49:38;;;;;;;2.15;1.27;;;20.50;43.30;;;;;;5095188;28;20031;-60
2024/02/03 00:52:04;;;;;;;2.70;1.20;;;20.50;43.30;;;;;;5095236;28;20027;-60
2024/02/03 00:54:30;;;;;;;2.28;1.30;;;20.50;43.40;;;;;;5093962;28;20039;-60
2024/02/03 00:56:56;;;;;;;2.25;1.48;;;20.50;43.30;;;;;;5095877;28;20036;-57
2024/02/03 00:59:22;;;;;;;2.53;1.40;;;20.50;43.40;;;;;;5094208;28;20320;-59
2024/02/03 01:01:48;;;;;;;1.88;1.20;;;20.50;43.40;;;;;;5095531;28;20035;-59
2024/02/03 01:04:14;;;;;;;2.13;1.30;;;20.50;43.40;;;;;;5095078;28;20024;-59
2024/02/03 01:06:40;;;;;;;2.08;1.20;;;20.50;43.40;;;;;;5094645;28;20026;-56
2024/02/03 01:09:06;;;;;;;3.17;1.58;;;20.50;43.40;;;;;;5094061;28;20435;-59
2024/02/03 01:11:33;;;;;;;2.55;1.10;;;20.40;43.40;;;;;;5095491;28;20035;-58
2024/02/03 01:13:59;;;;;;;2.17;1.30;;;20.40;43.40;;;;;;5094608;28;21602;-59
2024/02/03 01:16:25;;;;;;;1.67;1.20;;;20.40;43.40;;;;;;5094436;28;20061;-57
2024/02/03 01:18:51;;;;;;;2.08;1.10;;;20.40;43.40;;;;;;5093239;28;20020;-58
2024/02/03 01:21:19;;;;;;;2.85;1.25;;;20.40;43.40;;;;;;5095264;28;20405;-57
2024/02/03 01:23:45;;;;;;;2.70;1.40;;;20.40;43.40;;;;;;5093750;28;20467;-59
2024/02/03 01:26:11;;;;;;;2.65;1.20;;;20.40;43.50;;;;;;5077154;28;20067;-59
2024/02/03 01:28:37;;;;;;;2.20;1.25;;;20.40;43.50;;;;;;5094590;28;20024;-61
2024/02/03 01:31:03;;;;;;;1.67;1.10;;;20.40;43.50;;;;;;5094564;28;20443;-59
2024/02/03 01:33:31;;;;;;;2.00;1.30;;;20.40;43.50;;;;;;5059761;28;20155;-61
2024/02/03 01:35:57;;;;;;;1.67;1.33;;;20.40;43.60;;;;;;5092437;28;20032;-60
2024/02/03 01:38:23;;;;;;;1.80;1.30;;;20.40;43.60;;;;;;5076853;28;20040;-60
2024/02/03 01:40:49;;;;;;;1.67;1.10;;;20.40;43.60;;;;;;5093901;28;20020;-60
2024/02/03 01:43:14;;;;;;;2.83;1.67;;;20.40;43.60;;;;;;5095126;28;20375;-57
2024/02/03 01:45:41;;;;;;;3.08;1.67;;;20.40;43.60;;;;;;5085716;28;20032;-60
2024/02/03 01:48:08;;;;;;;1.85;1.25;;;20.40;43.60;;;;;;5094499;28;20032;-58
2024/02/03 01:50:35;;;;;;;2.30;1.40;;;20.30;43.60;;;;;;5094097;28;20039;-61
2024/02/03 01:53:03;;;;;;;2.17;1.30;;;20.30;43.60;;;;;;5075675;28;20343;-59
2024/02/03 01:55:30;;;;;;;2.13;1.27;;;20.30;43.60;;;;;;5093750;28;20050;-59
2024/02/03 01:58:00;;;;;;;1.55;1.10;;;20.30;43.60;;;;;;5094151;28;20354;-60
2024/02/03 02:00:26;;;;;;;2.05;1.25;;;20.30;43.70;;;;;;5094150;28;20077;-59
2024/02/03 02:02:52;;;;;;;2.30;1.00;;;20.30;43.70;;;;;;5093691;28;20024;-61
2024/02/03 02:05:18;;;;;;;1.85;1.05;;;20.30;43.70;;;;;;5075415;28;20478;-60
2024/02/03 02:07:44;;;;;;;1.58;1.13;;;20.30;43.70;;;;;;5092493;28;20439;-59
2024/02/03 02:10:11;;;;;;;2.22;1.10;;;20.30;43.70;;;;;;5092688;28;20035;-57
2024/02/03 02:12:37;;;;;;;2.33;1.30;;;20.30;43.70;;;;;;5094076;28;20028;-55
2024/02/03 02:15:04;;;;;;;2.05;1.13;;;20.30;43.70;;;;;;5091199;28;20074;-58
2024/02/03 02:17:30;;;;;;;1.17;0.80;;;20.30;44.40;;;;;;5083887;28;20455;-57
2024/02/03 02:20:16;;;;;;;2.38;1.20;;;20.30;43.80;;;;;;5093516;28;20110;-59
2024/02/03 02:22:42;;;;;;;2.17;0.90;;;20.30;43.80;;;;;;5087808;28;20459;-60
2024/02/03 02:25:08;;;;;;;1.98;1.10;;;20.30;43.80;;;;;;5090918;28;20034;-59
2024/02/03 02:27:34;;;;;;;2.05;0.90;;;20.30;43.80;;;;;;5093262;28;20020;-60
2024/02/03 02:30:00;;;;;;;1.92;0.95;;;20.30;43.90;;;;;;5093873;28;20024;-60
2024/02/03 02:32:26;;;;;;;1.95;1.00;;;20.20;43.80;;;;;;5092546;28;20024;-59
2024/02/03 02:34:51;;;;;;;1.05;0.70;;;20.30;43.90;;;;;;5093599;28;20446;-60
2024/02/03 02:37:17;;;;;;;1.83;1.13;;;20.30;43.90;;;;;;5092648;28;20031;-60
2024/02/03 02:39:43;;;;;;;1.60;0.82;;;20.20;43.90;;;;;;5092976;28;20036;-59
2024/02/03 02:42:09;;;;;;;1.33;0.90;;;20.20;43.90;;;;;;5092161;28;20032;-58
2024/02/03 02:44:35;;;;;;;1.35;1.00;;;20.20;43.90;;;;;;5093558;28;20453;-59
2024/02/03 02:47:01;;;;;;;1.27;0.98;;;20.20;43.90;;;;;;5072436;28;20367;-59
2024/02/03 02:49:27;;;;;;;2.38;0.93;;;20.20;44.00;;;;;;5092706;28;20035;-58
2024/02/03 02:51:52;;;;;;;1.85;1.20;;;20.20;44.00;;;;;;5092237;28;20070;-59
2024/02/03 02:54:19;;;;;;;1.80;0.88;;;20.20;44.00;;;;;;5092938;28;20024;-59
2024/02/03 02:56:44;;;;;;;3.50;1.20;;;20.20;44.10;;;;;;5092829;28;20035;-58
2024/02/03 02:59:11;;;;;;;2.13;1.05;;;20.20;44.10;;;;;;5093406;28;20324;-58
2024/02/03 03:01:37;;;;;;;1.90;0.77;;;20.20;44.10;;;;;;5092413;28;20400;-55
2024/02/03 03:04:03;;;;;;;1.85;0.82;;;20.20;44.10;;;;;;5094569;28;20048;-61
2024/02/03 03:06:28;;;;;;;1.63;0.85;;;20.20;44.10;;;;;;5093346;28;20082;-57
2024/02/03 03:08:54;;;;;;;1.15;0.82;;;20.20;44.20;;;;;;5092228;28;20024;-60
2024/02/03 03:11:20;;;;;;;1.23;0.77;;;20.20;44.80;;;;;;5092800;28;20032;-59
2024/02/03 03:13:46;;;;;;;1.55;0.65;;;20.20;44.30;;;;;;5089250;28;20450;-58
2024/02/03 03:16:12;;;;;;;1.98;0.75;;;20.20;44.30;;;;;;5091957;28;20032;-59
2024/02/03 03:18:38;;;;;;;1.63;0.70;;;20.20;44.40;;;;;;5094326;28;20031;-58
2024/02/03 03:21:04;;;;;;;2.33;0.60;;;20.10;44.30;;;;;;5092637;28;20331;-59
2024/02/03 03:23:30;;;;;;;1.65;0.90;;;20.10;44.40;;;;;;5092142;28;20034;-59
2024/02/03 03:25:56;;;;;;;1.55;0.90;;;20.10;44.40;;;;;;5092420;28;20385;-57
2024/02/03 03:28:22;;;;;;;2.38;0.80;;;20.10;44.40;;;;;;5084948;28;20017;-60
2024/02/03 03:30:48;;;;;;;1.95;0.82;;;20.10;44.40;;;;;;5090820;28;20020;-59
2024/02/03 03:33:14;;;;;;;2.10;0.85;;;20.10;44.50;;;;;;5074258;28;21691;-56
2024/02/03 03:35:40;;;;;;;1.60;0.70;;;20.10;45.10;;;;;;5092531;28;20036;-59
2024/02/03 03:38:06;;;;;;;0.95;0.60;;;20.10;44.50;;;;;;5092536;28;20050;-60
2024/02/03 03:40:35;;;;;;;2.03;0.85;;;20.10;44.50;;;;;;5092171;28;20153;-59
2024/02/03 03:43:05;;;;;;;0.90;0.50;;;20.10;44.60;;;;;;5092757;28;20150;-60
2024/02/03 03:45:31;;;;;;;1.02;0.60;;;20.10;44.60;;;;;;5091608;28;20043;-60
2024/02/03 03:47:57;;;;;;;1.60;0.95;;;20.10;44.60;;;;;;5074283;28;20043;-59
2024/02/03 03:50:24;;;;;;;1.15;0.60;;;20.10;44.70;;;;;;5091198;28;20048;-60
2024/02/03 03:52:50;;;;;;;1.17;0.63;;;20.10;44.70;;;;;;5092955;28;20024;-59
2024/02/03 03:55:16;;;;;;;1.27;0.65;;;20.10;44.70;;;;;;5092024;28;20024;-56
2024/02/03 03:57:42;;;;;;;1.38;0.75;;;20.10;44.70;;;;;;5093378;28;20024;-59
2024/02/03 04:00:10;;;;;;;1.17;0.60;;;20.10;44.70;;;;;;5090375;28;20474;-60
2024/02/03 04:02:39;;;;;;;1.90;0.73;;;20.10;44.80;;;;;;5092678;28;20066;-59
2024/02/03 04:05:06;;;;;;;1.85;0.80;;;20.10;44.80;;;;;;5087785;28;20435;-60
2024/02/03 04:07:32;;;;;;;1.38;0.40;;;20.10;44.80;;;;;;5094966;28;20020;-58
2024/02/03 04:09:58;;;;;;;1.58;0.70;;;20.10;44.80;;;;;;5095706;28;20350;-59
2024/02/03 04:12:23;;;;;;;0.93;0.50;;;20.10;44.90;;;;;;5096761;28;20036;-60
2024/02/03 04:14:50;;;;;;;0.90;0.50;;;20.10;44.90;;;;;;5095417;28;20077;-59
2024/02/03 04:17:15;;;;;;;1.00;0.60;;;20.00;44.80;;;;;;5094035;28;20113;-59
2024/02/03 04:19:42;;;;;;;1.08;0.47;;;20.10;44.90;;;;;;5095920;28;20020;-58
2024/02/03 04:22:10;;;;;;;1.88;0.70;;;20.10;45.00;;;;;;5096233;28;20024;-60
2024/02/03 04:24:36;;;;;;;1.75;0.60;;;20.00;44.90;;;;;;5096376;28;20028;-60
2024/02/03 04:27:02;;;;;;;1.67;0.73;;;20.00;44.90;;;;;;5095388;28;20024;-58
2024/02/03 04:29:28;;;;;;;1.73;0.77;;;20.00;44.90;;;;;;5094374;28;20024;-60
2024/02/03 04:31:54;;;;;;;1.23;0.50;;;20.00;45.00;;;;;;5077924;28;20177;-57
2024/02/03 04:34:20;;;;;;;2.33;0.82;;;20.00;45.00;;;;;;5095371;28;20485;-58
2024/02/03 04:36:46;;;;;;;2.38;0.70;;;20.00;45.00;;;;;;5095888;28;20036;-60
2024/02/03 04:39:13;;;;;;;1.65;0.60;;;20.00;45.00;;;;;;5094857;28;20035;-59
2024/02/03 04:41:39;;;;;;;1.70;0.80;;;20.00;45.00;;;;;;5095974;28;20034;-58
2024/02/03 04:44:05;;;;;;;2.13;0.60;;;20.00;45.00;;;;;;5094952;28;20048;-58
2024/02/03 04:46:30;;;;;;;1.55;0.60;;;20.00;45.00;;;;;;5094831;28;20051;-60
2024/02/03 04:48:56;;;;;;;1.52;0.55;;;20.00;45.00;;;;;;5094970;28;20024;-59
2024/02/03 04:51:22;;;;;;;0.80;0.45;;;20.00;45.00;;;;;;5095206;28;20016;-58
2024/02/03 04:53:48;;;;;;;1.00;0.60;;;20.00;45.00;;;;;;5094944;28;20139;-57
2024/02/03 04:56:13;;;;;;;0.90;0.40;;;20.00;45.10;;;;;;5095710;28;20032;-59
2024/02/03 04:58:39;;;;;;;0.60;0.50;;;20.00;45.10;;;;;;5093697;28;20020;-59
2024/02/03 05:01:05;;;;;;;2.40;0.80;;;19.90;45.00;;;;;;5094198;28;20035;-60
2024/02/03 05:03:32;;;;;;;1.58;0.40;;;20.00;45.10;;;;;;5095563;28;20039;-58
2024/02/03 05:06:04;;;;;;;1.27;0.50;;;20.00;45.10;;;;;;5094649;28;20057;-59
2024/02/03 05:08:36;;;;;;;1.23;0.50;;;19.90;45.10;;;;;;5093863;28;20369;-59
2024/02/03 05:11:03;;;;;;;1.80;0.63;;;20.00;45.10;;;;;;5076672;28;20019;-56
2024/02/03 05:13:29;;;;;;;1.58;0.70;;;20.00;45.10;;;;;;5094782;28;20024;-58
2024/02/03 05:15:54;;;;;;;1.60;0.80;;;20.00;45.10;;;;;;5093074;28;20035;-57
2024/02/03 05:18:21;;;;;;;2.75;0.90;;;20.00;45.10;;;;;;5093815;28;20024;-57
2024/02/03 05:20:47;;;;;;;2.33;0.80;;;20.00;45.20;;;;;;5094352;28;20479;-60
2024/02/03 05:23:13;;;;;;;1.48;0.60;;;20.00;45.20;;;;;;5092765;28;20028;-59
2024/02/03 05:25:39;;;;;;;2.70;0.90;;;19.90;45.10;;;;;;5074840;28;20039;-59
2024/02/03 05:28:05;;;;;;;1.95;0.60;;;19.90;45.10;;;;;;5094758;28;20332;-57
2024/02/03 05:30:30;;;;;;;2.10;0.77;;;19.90;45.10;;;;;;5094847;28;20038;-57
2024/02/03 05:32:56;;;;;;;1.50;0.50;;;19.90;45.10;;;;;;5094706;28;20020;-58
2024/02/03 05:35:22;;;;;;;1.55;0.63;;;19.90;45.10;;;;;;5094471;28;20135;-58
2024/02/03 05:37:48;;;;;;;1.27;0.57;;;19.90;45.20;;;;;;5074322;28;20061;-58
2024/02/03 05:40:14;;;;;;;1.45;0.60;;;19.90;45.20;;;;;;5094395;28;20024;-58
2024/02/03 05:42:39;;;;;;;1.35;0.68;;;19.90;45.20;;;;;;5094587;28;20348;-56
2024/02/03 05:45:06;;;;;;;3.83;0.80;;;19.90;45.20;;;;;;5093745;28;20051;-58
2024/02/03 05:47:31;;;;;;;1.00;0.40;;;19.90;45.20;;;;;;5093391;28;20062;-59
2024/02/03 05:49:57;;;;;;;2.15;0.90;;;19.90;45.20;;;;;;5075526;28;20027;-57
2024/02/03 05:52:23;;;;;;;1.95;0.80;;;19.90;45.20;;;;;;5094050;28;20059;-60
2024/02/03 05:54:49;;;;;;;0.65;0.40;;;19.80;45.20;;;;;;5093403;28;20115;-57
2024/02/03 05:57:14;;;;;;;1.25;0.60;;;19.90;45.20;;;;;;5082248;28;20036;-60
2024/02/03 05:59:44;;;;;;;3.00;0.60;;;19.90;45.20;;;;;;5093658;28;20103;-56
2024/02/03 06:02:11;;;;;;;1.20;0.50;;;19.90;45.20;;;;;;5093811;28;20427;-60
2024/02/03 06:04:39;;;;;;;1.85;0.70;;;19.90;45.20;;;;;;5093801;28;20024;-60
2024/02/03 06:07:05;;;;;;;1.17;0.50;;;19.90;45.20;;;;;;5092943;28;20019;-58
2024/02/03 06:09:32;;;;;;;1.38;0.50;;;19.90;45.20;;;;;;5093379;28;20032;-59
2024/02/03 06:11:57;;;;;;;0.88;0.50;;;19.90;45.30;;;;;;5093879;28;20058;-60
2024/02/03 06:14:24;;;;;;;1.45;0.57;;;19.80;45.20;;;;;;5093765;28;20023;-57
2024/02/03 06:16:50;;;;;;;0.73;0.40;;;19.80;45.20;;;;;;5091635;28;20044;-55
2024/02/03 06:19:16;;;;;;;1.00;0.60;;;19.90;45.30;;;;;;5091799;28;20101;-58
2024/02/03 06:21:41;;;;;;;1.90;0.57;;;19.80;45.20;;;;;;5092687;28;20035;-58
2024/02/03 06:24:07;;;;;;;1.40;0.60;;;19.80;45.20;;;;;;5075809;28;20344;-59
2024/02/03 06:26:33;;;;;;;1.00;0.50;;;19.80;45.20;;;;;;5074754;28;20059;-58
2024/02/03 06:28:59;;;;;;;1.30;0.60;;;19.80;45.20;;;;;;5093557;28;20594;-59
2024/02/03 06:31:25;;;;;;;1.10;0.40;;;19.80;45.30;;;;;;5083638;28;20023;-59
2024/02/03 06:33:51;;;;;;;1.00;0.60;;;19.80;45.20;;;;;;5087138;28;20365;-59
2024/02/03 06:36:16;;;;;;;1.70;0.50;;;19.80;45.30;;;;;;5092332;28;20122;-57
2024/02/03 06:38:42;;;;;;;1.52;0.50;;;19.80;45.30;;;;;;5092893;28;20028;-59
2024/02/03 06:41:14;;;;;;;1.80;0.60;;;19.80;45.30;;;;;;5092293;28;20024;-60
2024/02/03 06:43:41;;;;;;;1.33;0.50;;;19.80;45.30;;;;;;5091367;28;20436;-60
2024/02/03 06:46:07;;;;;;;1.38;0.65;;;19.80;45.40;;;;;;5091880;28;20031;-60
2024/02/03 06:48:33;;;;;;;1.05;0.47;;;19.80;45.40;;;;;;5092737;28;20103;-59
2024/02/03 06:50:59;;;;;;;1.70;0.50;;;19.80;45.30;;;;;;5092890;28;20107;-58
2024/02/03 06:53:25;;;;;;;1.88;0.47;;;19.80;45.30;;;;;;5092804;28;20043;-61
2024/02/03 06:55:51;;;;;;;1.58;0.50;;;19.80;45.30;;;;;;5092582;28;20063;-60
2024/02/03 06:58:17;;;;;;;1.40;0.60;;;19.80;45.30;;;;;;5091490;28;20032;-60
2024/02/03 07:00:43;;;;;;;2.22;0.55;;;19.80;45.30;;;;;;5092523;28;20016;-61
2024/02/03 07:03:10;;;;;;;1.20;0.70;;;19.80;45.40;;;;;;5092834;28;20020;-61
2024/02/03 07:05:36;;;;;;;0.85;0.30;;;19.80;45.30;;;;;;5075469;28;20062;-57
2024/02/03 07:08:02;;;;;;;2.00;0.70;;;19.80;45.40;;;;;;5090063;28;20412;-59
2024/02/03 07:10:28;;;;;;;1.17;0.47;;;19.80;45.40;;;;;;5093156;28;20044;-60
2024/02/03 07:12:54;;;;;;;1.48;0.60;;;19.80;45.40;;;;;;5082775;28;20428;-57
2024/02/03 07:15:20;;;;;;;1.63;0.47;;;19.80;45.40;;;;;;5087195;28;20398;-59
2024/02/03 07:17:46;;;;;;;1.48;0.65;;;19.80;45.40;;;;;;5084979;28;20032;-56
2024/02/03 07:20:12;;;;;;;2.78;0.40;;;19.80;45.40;;;;;;5091043;28;20077;-57
2024/02/03 07:22:38;;;;;;;1.50;0.40;;;19.80;45.40;;;;;;5092271;28;20028;-60
2024/02/03 07:25:05;;;;;;;1.05;0.50;;;19.80;45.40;;;;;;5080845;28;20033;-58
2024/02/03 07:27:30;;;;;;;1.73;0.70;;;19.70;45.40;;;;;;5091675;28;20133;-58
2024/02/03 07:29:56;;;;;;;2.00;0.70;;;19.80;45.40;;;;;;5092980;28;20062;-59
2024/02/03 07:32:22;;;;;;;1.45;0.57;;;19.80;45.50;;;;;;5092527;28;20020;-61
2024/02/03 07:34:48;;;;;;;2.22;0.70;;;19.80;45.50;;;;;;5092195;28;20028;-60
2024/02/03 07:37:14;;;;;;;2.00;0.57;;;19.70;45.40;;;;;;5092665;28;20493;-59
2024/02/03 07:39:40;;;;;;;2.28;0.60;;;19.80;45.50;;;;;;5095040;28;20028;-58
2024/02/03 07:42:06;;;;;;;1.67;0.73;;;19.80;45.50;;;;;;5078887;28;20456;-59
2024/02/03 07:44:32;;;;;;;1.25;0.40;;;19.80;45.50;;;;;;5096013;28;20339;-60
2024/02/03 07:46:59;;;;;;;1.20;0.50;;;19.80;45.60;;;;;;5095629;28;20089;-59
2024/02/03 07:49:25;;;;;;;1.55;0.55;;;19.80;45.60;;;;;;5096090;28;20035;-61
2024/02/03 07:51:51;;;;;;;2.03;0.73;;;19.80;45.60;;;;;;5096148;28;20028;-61
2024/02/03 07:54:17;;;;;;;5.38;0.95;;;19.70;45.60;;;;;;5096586;28;20089;-60
2024/02/03 07:56:43;;;;;;;2.20;0.80;;;19.80;45.60;;;;;;5094741;28;20035;-59
2024/02/03 07:59:08;;;;;;;2.75;0.60;;;19.70;45.60;;;;;;5095653;28;20035;-61
2024/02/03 08:01:34;;;;;;;2.35;0.70;;;19.70;45.60;;;;;;5095312;28;20443;-59
2024/02/03 08:04:00;;;;;;;3.10;0.85;;;19.70;45.60;;;;;;5096398;28;20415;-60
2024/02/03 08:06:26;;;;;;;2.50;0.70;;;19.70;45.60;;;;;;5094472;28;20031;-60
2024/02/03 08:08:52;;;;;;;2.08;0.60;;;19.70;46.30;;;;;;5094444;28;20051;-61
2024/02/03 08:11:18;;;;;;;1.48;0.52;;;19.70;45.80;;;;;;5095367;28;20108;-60
2024/02/03 08:13:44;;;;;;;1.15;0.55;;;19.70;45.80;;;;;;5095337;28;20035;-61
2024/02/03 08:16:09;;;;;;;2.15;0.70;;;19.80;45.90;;;;;;5094144;28;20097;-58
2024/02/03 08:18:36;;;;;;;2.10;0.80;;;19.80;45.90;;;;;;5077161;28;21181;-58
2024/02/03 08:21:03;;;;;;;3.05;0.60;;;19.80;46.00;;;;;;5094453;28;20541;-58
2024/02/03 08:23:29;;;;;;;2.05;0.73;;;19.80;45.90;;;;;;5095561;28;20020;-58
2024/02/03 08:25:55;;;;;;;2.28;0.63;;;19.80;45.90;;;;;;5095277;28;20145;-59
2024/02/03 08:28:21;;;;;;;2.25;0.70;;;19.80;46.00;;;;;;5093142;28;20043;-61
2024/02/03 08:30:47;;;;;;;1.95;0.70;;;19.90;46.00;;;;;;5094357;28;20032;-58
2024/02/03 08:33:13;;;;;;;2.83;1.02;;;19.90;45.90;;;;;;5096099;28;20161;-60
2024/02/03 08:35:38;;;;;;;2.53;0.70;;;19.90;45.90;;;;;;5094921;28;20055;-60
2024/02/03 08:38:04;;;;;;;1.95;0.80;;;20.00;45.90;;;;;;5095013;28;20059;-58
2024/02/03 08:40:30;;;;;;;1.88;0.60;;;20.00;45.80;;;;;;5094504;28;20374;-60
2024/02/03 08:42:56;;;;;;;3.20;0.80;;;20.00;45.70;;;;;;5094426;28;20054;-59
2024/02/03 08:45:22;;;;;;;4.50;1.45;;;20.00;45.70;;;;;;5096070;28;20040;-60
2024/02/03 08:47:48;;;;;;;2.47;0.65;;;20.10;45.80;;;;;;5095074;28;20035;-58
2024/02/03 08:50:14;;;;;;;3.78;1.00;;;20.10;45.80;;;;;;5093346;28;20024;-60
2024/02/03 08:52:40;;;;;;;2.60;0.90;;;20.10;45.80;;;;;;5095585;28;20103;-59
2024/02/03 08:55:06;;;;;;;2.10;0.75;;;20.20;45.70;;;;;;5093997;28;20028;-58
2024/02/03 08:57:32;;;;;;;1.80;0.90;;;20.20;45.60;;;;;;5074965;28;20032;-57
2024/02/03 08:59:58;;;;;;;1.67;0.60;;;20.20;45.60;;;;;;5093567;28;20374;-60
2024/02/03 09:02:23;;;;;;;3.40;1.05;;;20.30;45.60;;;;;;5094364;28;20378;-58
2024/02/03 09:04:49;;;;;;;1.73;0.80;;;20.30;45.50;;;;;;5088279;28;20024;-53
2024/02/03 09:07:15;;;;;;;3.65;0.98;;;20.30;45.50;;;;;;5093314;28;20433;-53
2024/02/03 09:09:42;;;;;;;3.13;1.08;;;20.30;45.60;;;;;;5094926;28;20110;-59
2024/02/03 09:12:08;;;;;;;2.72;1.02;;;20.40;45.90;;;;;;5094105;28;20035;-60
2024/02/03 09:14:34;;;;;;;2.20;0.80;;;20.40;45.90;;;;;;5094297;28;20024;-59
2024/02/03 09:17:00;;;;;;;3.40;0.98;;;20.50;46.00;;;;;;5075793;28;20097;-57
2024/02/03 09:19:26;;;;;;;3.70;1.10;;;20.50;45.90;;;;;;5093774;28;20028;-62
2024/02/03 09:21:52;;;;;;;2.55;0.85;;;20.50;45.80;;;;;;5094655;28;20020;-59
2024/02/03 09:24:18;;;;;;;4.47;1.30;;;20.60;45.70;;;;;;5093833;28;20024;-58
2024/02/03 09:26:44;;;;;;;5.75;1.02;;;20.60;45.60;;;;;;5094080;28;20084;-60
2024/02/03 09:29:11;;;;;;;3.25;0.98;;;20.60;45.60;;;;;;5093569;28;20035;-59
2024/02/03 09:31:36;;;;;;;4.28;0.98;;;20.60;45.60;;;;;;5094236;28;20414;-58
2024/02/03 09:34:04;;;;;;;3.50;1.00;;;20.70;45.50;;;;;;5093193;28;20051;-59
2024/02/03 09:36:33;;;;;;;3.70;1.00;;;20.70;45.40;;;;;;5094335;28;20036;-58
2024/02/03 09:38:59;;;;;;;3.50;0.90;;;20.70;45.30;;;;;;5094909;28;20056;-56
2024/02/03 09:41:27;;;;;;;2.28;0.80;;;20.80;45.30;;;;;;5095135;28;20145;-58
2024/02/03 09:43:53;;;;;;;2.85;1.08;;;20.80;45.20;;;;;;5093829;28;20040;-59
2024/02/03 09:46:19;;;;;;;4.10;1.02;;;20.80;45.10;;;;;;5094456;28;20016;-59
2024/02/03 09:48:45;;;;;;;2.47;0.88;;;20.80;45.00;;;;;;5089408;28;20095;-59
2024/02/03 09:51:11;;;;;;;3.20;0.73;;;20.80;45.00;;;;;;5095988;28;20039;-59
2024/02/03 09:53:38;;;;;;;3.13;1.00;;;20.90;45.00;;;;;;5096545;28;20031;-58
2024/02/03 09:56:05;;;;;;;3.33;0.95;;;20.90;44.90;;;;;;5077378;28;20375;-57
2024/02/03 09:58:31;;;;;;;2.42;0.90;;;20.90;44.90;;;;;;5096223;28;20032;-58
2024/02/03 10:00:57;;;;;;;3.08;0.93;;;20.90;44.80;;;;;;5096173;28;20024;-56
2024/02/03 10:03:23;;;;;;;2.65;0.80;;;20.90;44.70;;;;;;5095418;28;20028;-60
2024/02/03 10:05:58;;;;;;;3.58;1.13;;;20.90;44.70;;;;;;5095661;28;20028;-60
2024/02/03 10:08:24;;;;;;;2.42;0.90;;;20.90;44.70;;;;;;5096115;28;20032;-60
2024/02/03 10:10:53;;;;;;;1.65;0.60;;;21.00;44.70;;;;;;5095638;28;20085;-61
2024/02/03 10:13:19;;;;;;;3.15;0.90;;;21.00;44.70;;;;;;5094143;28;20032;-61
2024/02/03 10:15:45;;;;;;;2.72;0.98;;;21.00;44.70;;;;;;5094403;28;20040;-56
2024/02/03 10:18:13;;;;;;;2.78;1.05;;;21.00;44.70;;;;;;5094272;28;20433;-57
2024/02/03 10:20:38;;;;;;;1.88;0.80;;;21.00;44.70;;;;;;5093184;28;20454;-56
2024/02/03 10:23:04;;;;;;;1.70;0.77;;;21.00;44.70;;;;;;5092764;28;20020;-60
2024/02/03 10:25:31;;;;;;;2.03;0.93;;;21.00;44.70;;;;;;5091649;28;20024;-59
2024/02/03 10:28:03;;;;;;;3.35;0.88;;;21.00;44.70;;;;;;5093261;28;20031;-61
2024/02/03 10:30:34;;;;;;;3.03;1.10;;;21.00;44.70;;;;;;5090939;28;20069;-59
2024/02/03 10:33:01;;;;;;;2.15;0.90;;;21.00;44.70;;;;;;5092495;28;20401;-59
2024/02/03 10:35:31;;;;;;;2.15;0.90;;;21.00;44.70;;;;;;5092634;28;20028;-60
2024/02/03 10:37:57;;;;;;;2.00;0.70;;;21.00;44.80;;;;;;5092806;28;20099;-59
2024/02/03 10:40:33;;;;;;;2.03;0.60;;;21.00;44.70;;;;;;5092122;28;20032;-58
2024/02/03 10:43:00;;;;;;;2.70;0.88;;;20.90;44.70;;;;;;5092544;28;20028;-53
2024/02/03 10:45:31;;;;;;;1.60;0.70;;;20.90;44.70;;;;;;5092809;28;20056;-59
2024/02/03 10:48:01;;;;;;;2.47;0.90;;;20.90;44.70;;;;;;5090583;28;20469;-54
2024/02/03 10:50:40;;;;;;;3.58;1.02;;;20.90;44.80;;;;;;5088804;28;20016;-58
2024/02/03 10:53:34;;;;;;;2.25;0.80;;;20.90;44.80;;;;;;5092942;28;20089;-59
2024/02/03 10:56:08;;;;;;;2.70;1.00;;;20.90;44.90;;;;;;5086201;28;20109;-60
2024/02/03 10:58:34;;;;;;;2.30;0.80;;;20.90;44.90;;;;;;5092202;28;20024;-64
2024/02/03 11:01:21;;;;;;;2.60;0.80;;;20.90;44.90;;;;;;5092805;28;20063;-56
2024/02/03 11:03:49;;;;;;;2.88;0.93;;;20.90;45.00;;;;;;5092275;28;20342;-61
2024/02/03 11:06:27;;;;;;;2.53;0.95;;;20.90;45.00;;;;;;5092528;28;20038;-55
2024/02/03 11:09:08;;;;;;;4.03;1.02;;;20.90;45.10;;;;;;5091568;28;20035;-60
2024/02/03 11:11:34;;;;;;;2.58;0.82;;;20.90;45.80;;;;;;5091354;28;20058;-58
2024/02/03 11:14:02;;;;;;;4.30;0.90;;;20.90;45.20;;;;;;5074443;28;20064;-54
2024/02/03 11:16:38;;;;;;;3.42;0.88;;;20.90;45.20;;;;;;5082175;28;20046;-63
2024/02/03 11:19:04;;;;;;;2.05;0.90;;;21.00;45.30;;;;;;5057430;28;20473;-60
2024/02/03 11:21:29;;;;;;;2.10;0.77;;;21.00;45.30;;;;;;5085196;28;20024;-53
2024/02/03 11:23:55;;;;;;;3.13;0.70;;;21.00;45.30;;;;;;5090666;28;20052;-55
2024/02/03 11:26:21;;;;;;;1.75;0.80;;;21.00;45.40;;;;;;5083746;28;20061;-60
2024/02/03 11:28:47;;;;;;;2.42;0.80;;;21.00;45.40;;;;;;5091064;28;20023;-57
2024/02/03 11:31:16;;;;;;;2.80;0.90;;;21.00;45.40;;;;;;5092384;28;20020;-62
2024/02/03 11:33:48;;;;;;;3.13;0.90;;;21.00;45.40;;;;;;5091442;28;20036;-60
2024/02/03 11:36:14;;;;;;;2.80;0.70;;;21.00;45.40;;;;;;5089371;28;20447;-61
2024/02/03 11:38:47;;;;;;;3.22;1.10;;;21.00;45.40;;;;;;5091643;28;20024;-50
2024/02/03 11:41:14;;;;;;;3.08;0.80;;;21.00;45.50;;;;;;5092314;28;20047;-60
2024/02/03 11:43:40;;;;;;;2.00;0.70;;;21.00;45.50;;;;;;5093434;28;20044;-59
2024/02/03 11:46:09;;;;;;;4.03;0.90;;;21.00;45.50;;;;;;5074120;28;20020;-58
2024/02/03 11:48:36;;;;;;;1.63;0.60;;;21.00;45.50;;;;;;5091433;28;20042;-60
2024/02/03 11:51:04;;;;;;;2.50;1.05;;;21.00;45.50;;;;;;5090723;28;20032;-56
2024/02/03 11:53:30;;;;;;;1.85;0.60;;;21.00;45.50;;;;;;5092957;28;20120;-58
2024/02/03 11:55:56;;;;;;;3.55;0.75;;;21.00;45.60;;;;;;5093313;28;20118;-59
2024/02/03 11:58:26;;;;;;;1.95;0.77;;;21.00;45.60;;;;;;5073529;28;20032;-55
2024/02/03 12:01:13;;;;;;;1.58;0.90;;;21.00;45.70;;;;;;5089761;28;20086;-61
2024/02/03 12:03:39;;;;;;;2.28;0.88;;;21.10;45.70;;;;;;5090464;28;20028;-55
2024/02/03 12:06:05;;;;;;;3.63;0.90;;;21.00;45.70;;;;;;5090256;28;20039;-51
2024/02/03 12:08:32;;;;;;;2.83;0.90;;;21.10;45.80;;;;;;5091694;28;20089;-56
2024/02/03 12:10:58;;;;;;;2.97;1.17;;;21.00;45.90;;;;;;5091211;28;20512;-56
2024/02/03 12:13:24;;;;;;;2.40;0.98;;;21.10;46.10;;;;;;5083501;28;20020;-56
2024/02/03 12:15:53;;;;;;;2.75;0.77;;;21.10;46.00;;;;;;5093371;28;20024;-52
2024/02/03 12:18:20;;;;;;;2.83;0.80;;;21.10;45.90;;;;;;5092531;28;20075;-55
2024/02/03 12:20:46;;;;;;;2.72;0.80;;;21.10;45.90;;;;;;5092585;28;20036;-55
2024/02/03 12:23:12;;;;;;;2.20;0.70;;;21.10;45.80;;;;;;5091147;28;20027;-56
2024/02/03 12:25:38;;;;;;;1.83;0.70;;;21.10;45.80;;;;;;5091706;28;20110;-48
2024/02/03 12:28:06;;;;;;;1.48;0.65;;;21.10;45.70;;;;;;5095314;28;20107;-57
2024/02/03 12:30:35;;;;;;;1.63;0.43;;;21.10;45.70;;;;;;5095419;28;20070;-57
2024/02/03 12:33:02;;;;;;;1.05;0.47;;;21.10;45.70;;;;;;5094221;28;20060;-60
2024/02/03 12:35:29;;;;;;;6.38;0.80;;;21.10;45.60;;;;;;5095994;28;20038;-60
2024/02/03 12:37:55;;;;;;;1.70;0.60;;;21.10;45.60;;;;;;5094919;28;20024;-58
2024/02/03 12:40:21;;;;;;;1.48;0.60;;;21.10;45.60;;;;;;5095030;28;20089;-56
2024/02/03 12:42:47;;;;;;;2.20;0.80;;;21.10;45.60;;;;;;5094662;28;20020;-59
2024/02/03 12:45:12;;;;;;;2.15;0.82;;;21.10;45.60;;;;;;5094376;28;20451;-57